PWSweather.com
Personal Weather Stations
Station Observations
KUCEROV1
Npr Větrníky, VyskovCZ 68201

Npr VětrníkyVyskovCZ 68201

Lat: 49.219314, Lon: 17.009937

Elevation: 1001

Station Type: WH2080

pocasi.kucerov.homenet.org

High Low Average
Temperature 39.4°F4.1°F 33.6°F0.9°F 36.1°F2.3°F
Dew Point 37.4°F3.0°F 30.7°F-0.7°F 33.3°F0.7°F
Winds 10.7 mph -17.2 mph - 0.3 mph 0.5 mph 4.3 mph 6.9 mph
Wind Gusts 16.8 mph27.0 mph 2.2 mph3.5 mph 8.4 mph13.5 mph
Humidity 96% 80% 89%
Pressure 29.73 in1006.80 in 29.36 in994.20 in -
Precipitation 1.38 in35.10 in - -
Hour Temp Dew Point Humidity Winds Wind Gusts Pressure Precip Precip Rate Daily Precip Total
12:00 AM 33.8°F1.0°C 31.7°F-0.2°C 92% 4.7 mph S7.6 kmh S 10.7 mph17.2 kmh 29.37 in994.6 mb 0.00 in0.0 mm 0.00 in0.0 mm 0.00 in0.0 mm
12:05 AM 33.8°F1.0°C 31.7°F-0.2°C 92% 4.5 mph SW7.2 kmh SW 9.8 mph15.8 kmh 29.37 in994.6 mb 0.00 in0.0 mm 0.00 in0.0 mm 0.00 in0.0 mm
12:10 AM 33.9°F1.1°C 31.8°F-0.1°C 92% 4.5 mph SW7.2 kmh SW 11.4 mph18.3 kmh 29.36 in994.2 mb 0.00 in0.0 mm 0.00 in0.0 mm 0.00 in0.0 mm
12:15 AM 34.0°F1.1°C 32.2°F0.1°C 93% 5.2 mph SSE8.4 kmh SSE 9.8 mph15.8 kmh 29.36 in994.2 mb 0.00 in0.0 mm 0.00 in0.0 mm 0.00 in0.0 mm
12:20 AM 34.0°F1.1°C 32.2°F0.1°C 93% 5.0 mph SW8.0 kmh SW 11.4 mph18.3 kmh 29.36 in994.2 mb 0.00 in0.0 mm 0.00 in0.0 mm 0.00 in0.0 mm
12:25 AM 34.1°F1.2°C 32.3°F0.2°C 93% 5.9 mph S9.5 kmh S 13.0 mph20.9 kmh 29.37 in994.6 mb 0.00 in0.0 mm 0.00 in0.0 mm 0.00 in0.0 mm
12:30 AM 34.2°F1.2°C 32.4°F0.2°C 93% 4.9 mph SSE7.9 kmh SSE 8.3 mph13.4 kmh 29.36 in994.2 mb 0.00 in0.0 mm 0.00 in0.0 mm 0.00 in0.0 mm
12:35 AM 34.2°F1.2°C 32.4°F0.2°C 93% 4.0 mph SW6.4 kmh SW 9.8 mph15.8 kmh 29.36 in994.2 mb 0.00 in0.0 mm 0.00 in0.0 mm 0.00 in0.0 mm
12:40 AM 34.2°F1.2°C 32.4°F0.2°C 93% 4.6 mph SSE7.4 kmh SSE 10.7 mph17.2 kmh 29.36 in994.2 mb 0.00 in0.0 mm 0.00 in0.0 mm 0.00 in0.0 mm
12:45 AM 34.2°F1.2°C 32.4°F0.2°C 93% 4.4 mph SSW7.1 kmh SSW 10.7 mph17.2 kmh 29.36 in994.2 mb 0.00 in0.0 mm 0.00 in0.0 mm 0.00 in0.0 mm
12:50 AM 34.2°F1.2°C 32.4°F0.2°C 93% 4.3 mph S6.9 kmh S 8.3 mph13.4 kmh 29.37 in994.6 mb 0.00 in0.0 mm 0.00 in0.0 mm 0.00 in0.0 mm
12:55 AM 34.1°F1.2°C 32.3°F0.2°C 93% 4.4 mph SW7.1 kmh SW 9.2 mph14.8 kmh 29.37 in994.6 mb 0.00 in0.0 mm 0.00 in0.0 mm 0.00 in0.0 mm
01:00 AM 34.0°F1.1°C 32.2°F0.1°C 93% 4.5 mph WSW7.2 kmh WSW 8.3 mph13.4 kmh 29.37 in994.6 mb 0.00 in0.0 mm 0.00 in0.0 mm 0.00 in0.0 mm
01:05 AM 34.0°F1.1°C 32.2°F0.1°C 93% 4.8 mph S7.7 kmh S 8.3 mph13.4 kmh 29.37 in994.6 mb 0.00 in0.0 mm 0.00 in0.0 mm 0.00 in0.0 mm
01:10 AM 34.0°F1.1°C 32.2°F0.1°C 93% 4.3 mph SSE6.9 kmh SSE 9.8 mph15.8 kmh 29.37 in994.6 mb 0.00 in0.0 mm 0.00 in0.0 mm 0.00 in0.0 mm
01:15 AM 34.0°F1.1°C 32.2°F0.1°C 93% 5.3 mph SSW8.5 kmh SSW 9.8 mph15.8 kmh 29.37 in994.6 mb 0.00 in0.0 mm 0.00 in0.0 mm 0.00 in0.0 mm
01:20 AM 34.0°F1.1°C 32.2°F0.1°C 93% 4.3 mph SW6.9 kmh SW 9.2 mph14.8 kmh 29.37 in994.6 mb 0.00 in0.0 mm 0.00 in0.0 mm 0.00 in0.0 mm
01:25 AM 33.9°F1.1°C 32.1°F0.1°C 93% 4.6 mph WSW7.4 kmh WSW 8.3 mph13.4 kmh 29.37 in994.6 mb 0.00 in0.0 mm 0.00 in0.0 mm 0.00 in0.0 mm
01:30 AM 33.8°F1.0°C 32.0°F0.0°C 93% 4.8 mph SW7.7 kmh SW 11.4 mph18.3 kmh 29.37 in994.6 mb 0.00 in0.0 mm 0.00 in0.0 mm 0.00 in0.0 mm
01:35 AM 33.8°F1.0°C 32.0°F0.0°C 93% 5.7 mph SSW9.2 kmh SSW 9.8 mph15.8 kmh 29.37 in994.6 mb 0.00 in0.0 mm 0.00 in0.0 mm 0.00 in0.0 mm
01:40 AM 34.0°F1.1°C 32.2°F0.1°C 93% 5.0 mph SW8.0 kmh SW 13.0 mph20.9 kmh 29.37 in994.6 mb 0.00 in0.0 mm 0.00 in0.0 mm 0.00 in0.0 mm
01:45 AM 33.8°F1.0°C 32.0°F0.0°C 93% 6.4 mph S10.3 kmh S 10.7 mph17.2 kmh 29.37 in994.6 mb 0.00 in0.0 mm 0.00 in0.0 mm 0.00 in0.0 mm
01:50 AM 33.8°F1.0°C 32.0°F0.0°C 93% 5.6 mph SSE9.0 kmh SSE 11.4 mph18.3 kmh 29.37 in994.6 mb 0.00 in0.0 mm 0.00 in0.0 mm 0.00 in0.0 mm
01:55 AM 33.8°F1.0°C 32.0°F0.0°C 93% 6.1 mph SSW9.8 kmh SSW 12.1 mph19.5 kmh 29.37 in994.6 mb 0.00 in0.0 mm 0.00 in0.0 mm 0.00 in0.0 mm
02:00 AM 33.8°F1.0°C 32.0°F0.0°C 93% 5.7 mph SW9.2 kmh SW 12.1 mph19.5 kmh 29.38 in994.9 mb 0.00 in0.0 mm 0.00 in0.0 mm 0.00 in0.0 mm
02:05 AM 33.8°F1.0°C 32.0°F0.0°C 93% 4.4 mph SSW7.1 kmh SSW 8.3 mph13.4 kmh 29.38 in994.9 mb 0.00 in0.0 mm 0.00 in0.0 mm 0.00 in0.0 mm
02:10 AM 33.8°F1.0°C 32.0°F0.0°C 93% 3.4 mph SSW5.5 kmh SSW 7.6 mph12.2 kmh 29.37 in994.6 mb 0.00 in0.0 mm 0.00 in0.0 mm 0.00 in0.0 mm
02:15 AM 33.8°F1.0°C 32.0°F0.0°C 93% 3.2 mph SE5.1 kmh SE 9.8 mph15.8 kmh 29.38 in994.9 mb 0.00 in0.0 mm 0.00 in0.0 mm 0.00 in0.0 mm
02:20 AM 33.8°F1.0°C 32.0°F0.0°C 93% 4.5 mph S7.2 kmh S 9.8 mph15.8 kmh 29.38 in994.9 mb 0.00 in0.0 mm 0.00 in0.0 mm 0.00 in0.0 mm
02:25 AM 33.8°F1.0°C 32.0°F0.0°C 93% 5.0 mph SSW8.0 kmh SSW 8.3 mph13.4 kmh 29.38 in994.9 mb 0.00 in0.0 mm 0.00 in0.0 mm 0.00 in0.0 mm
02:30 AM 33.8°F1.0°C 32.0°F0.0°C 93% 4.8 mph SW7.7 kmh SW 9.2 mph14.8 kmh 29.38 in994.9 mb 0.00 in0.0 mm 0.00 in0.0 mm 0.00 in0.0 mm
02:35 AM 33.8°F1.0°C 32.0°F0.0°C 93% 4.7 mph S7.6 kmh S 9.8 mph15.8 kmh 29.38 in994.9 mb 0.00 in0.0 mm 0.00 in0.0 mm 0.00 in0.0 mm
02:40 AM 33.8°F1.0°C 32.0°F0.0°C 93% 3.4 mph SSW5.5 kmh SSW 8.3 mph13.4 kmh 29.38 in994.9 mb 0.00 in0.0 mm 0.00 in0.0 mm 0.00 in0.0 mm
02:45 AM 33.8°F1.0°C 32.0°F0.0°C 93% 3.7 mph SSW6.0 kmh SSW 6.9 mph11.1 kmh 29.38 in994.9 mb 0.00 in0.0 mm 0.00 in0.0 mm 0.00 in0.0 mm
02:50 AM 33.8°F1.0°C 32.0°F0.0°C 93% 2.8 mph SSW4.5 kmh SSW 5.4 mph8.7 kmh 29.38 in994.9 mb 0.00 in0.0 mm 0.00 in0.0 mm 0.00 in0.0 mm
02:55 AM 33.8°F1.0°C 32.0°F0.0°C 93% 3.7 mph S6.0 kmh S 6.9 mph11.1 kmh 29.38 in994.9 mb 0.00 in0.0 mm 0.00 in0.0 mm 0.00 in0.0 mm
03:00 AM 33.8°F1.0°C 32.0°F0.0°C 93% 3.8 mph S6.1 kmh S 8.3 mph13.4 kmh 29.38 in994.9 mb 0.00 in0.0 mm 0.00 in0.0 mm 0.00 in0.0 mm
03:05 AM 33.9°F1.1°C 32.1°F0.1°C 93% 5.8 mph S9.3 kmh S 9.2 mph14.8 kmh 29.38 in994.9 mb 0.00 in0.0 mm 0.00 in0.0 mm 0.00 in0.0 mm
03:10 AM 34.0°F1.1°C 32.2°F0.1°C 93% 4.5 mph SW7.2 kmh SW 9.8 mph15.8 kmh 29.38 in994.9 mb 0.00 in0.0 mm 0.00 in0.0 mm 0.00 in0.0 mm
03:15 AM 34.0°F1.1°C 32.2°F0.1°C 93% 4.1 mph SW6.6 kmh SW 10.7 mph17.2 kmh 29.38 in994.9 mb 0.00 in0.0 mm 0.00 in0.0 mm 0.00 in0.0 mm
03:20 AM 34.1°F1.2°C 32.3°F0.2°C 93% 3.8 mph SSE6.1 kmh SSE 7.6 mph12.2 kmh 29.38 in994.9 mb 0.00 in0.0 mm 0.00 in0.0 mm 0.00 in0.0 mm
03:25 AM 34.0°F1.1°C 32.2°F0.1°C 93% 3.8 mph S6.1 kmh S 8.3 mph13.4 kmh 29.38 in994.9 mb 0.00 in0.0 mm 0.00 in0.0 mm 0.00 in0.0 mm
03:30 AM 34.0°F1.1°C 32.2°F0.1°C 93% 4.4 mph SW7.1 kmh SW 7.6 mph12.2 kmh 29.38 in994.9 mb 0.00 in0.0 mm 0.00 in0.0 mm 0.00 in0.0 mm
03:35 AM 34.0°F1.1°C 32.2°F0.1°C 93% 3.2 mph SW5.1 kmh SW 7.6 mph12.2 kmh 29.38 in994.9 mb 0.00 in0.0 mm 0.00 in0.0 mm 0.00 in0.0 mm
03:40 AM 34.0°F1.1°C 32.2°F0.1°C 93% 3.3 mph NNW5.3 kmh NNW 9.2 mph14.8 kmh 29.38 in994.9 mb 0.00 in0.0 mm 0.00 in0.0 mm 0.00 in0.0 mm
03:45 AM 34.0°F1.1°C 32.2°F0.1°C 93% 3.7 mph S6.0 kmh S 6.9 mph11.1 kmh 29.38 in994.9 mb 0.00 in0.0 mm 0.00 in0.0 mm 0.00 in0.0 mm
03:50 AM 34.0°F1.1°C 32.2°F0.1°C 93% 2.5 mph SSW4.0 kmh SSW 6.0 mph9.7 kmh 29.38 in994.9 mb 0.00 in0.0 mm 0.00 in0.0 mm 0.00 in0.0 mm
03:55 AM 34.0°F1.1°C 32.2°F0.1°C 93% 2.2 mph SW3.5 kmh SW 5.4 mph8.7 kmh 29.39 in995.3 mb 0.00 in0.0 mm 0.00 in0.0 mm 0.00 in0.0 mm
04:00 AM 34.0°F1.1°C 32.2°F0.1°C 93% 4.1 mph S6.6 kmh S 8.3 mph13.4 kmh 29.39 in995.3 mb 0.00 in0.0 mm 0.00 in0.0 mm 0.00 in0.0 mm
04:05 AM 34.0°F1.1°C 32.2°F0.1°C 93% 3.7 mph S6.0 kmh S 9.2 mph14.8 kmh 29.39 in995.3 mb 0.00 in0.0 mm 0.00 in0.0 mm 0.00 in0.0 mm
04:10 AM 34.0°F1.1°C 32.2°F0.1°C 93% 4.3 mph SSW6.9 kmh SSW 7.6 mph12.2 kmh 29.39 in995.3 mb 0.00 in0.0 mm 0.00 in0.0 mm 0.00 in0.0 mm
04:15 AM 34.1°F1.2°C 32.3°F0.2°C 93% 3.2 mph SSE5.1 kmh SSE 8.3 mph13.4 kmh 29.39 in995.3 mb 0.00 in0.0 mm 0.00 in0.0 mm 0.00 in0.0 mm
04:20 AM 34.2°F1.2°C 32.4°F0.2°C 93% 2.6 mph E4.2 kmh E 6.9 mph11.1 kmh 29.39 in995.3 mb 0.00 in0.0 mm 0.00 in0.0 mm 0.00 in0.0 mm
04:25 AM 34.2°F1.2°C 32.4°F0.2°C 93% 1.8 mph NNE2.9 kmh NNE 3.8 mph6.1 kmh 29.39 in995.3 mb 0.00 in0.0 mm 0.00 in0.0 mm 0.00 in0.0 mm
04:30 AM 34.2°F1.2°C 32.4°F0.2°C 93% 1.4 mph SSW2.3 kmh SSW 5.4 mph8.7 kmh 29.39 in995.3 mb 0.00 in0.0 mm 0.00 in0.0 mm 0.00 in0.0 mm
04:35 AM 34.0°F1.1°C 32.2°F0.1°C 93% 1.4 mph NW2.3 kmh NW 4.5 mph7.2 kmh 29.39 in995.3 mb 0.00 in0.0 mm 0.00 in0.0 mm 0.00 in0.0 mm
04:40 AM 34.0°F1.1°C 32.2°F0.1°C 93% 1.8 mph S2.9 kmh S 6.9 mph11.1 kmh 29.39 in995.3 mb 0.00 in0.0 mm 0.00 in0.0 mm 0.00 in0.0 mm
04:45 AM 34.0°F1.1°C 32.2°F0.1°C 93% 1.5 mph WSW2.4 kmh WSW 3.1 mph5.0 kmh 29.39 in995.3 mb 0.00 in0.0 mm 0.00 in0.0 mm 0.00 in0.0 mm
04:50 AM 34.0°F1.1°C 32.2°F0.1°C 93% 1.1 mph ESE1.8 kmh ESE 3.8 mph6.1 kmh 29.39 in995.3 mb 0.00 in0.0 mm 0.00 in0.0 mm 0.00 in0.0 mm
04:55 AM 34.1°F1.2°C 32.3°F0.2°C 93% 1.9 mph E3.1 kmh E 4.5 mph7.2 kmh 29.39 in995.3 mb 0.00 in0.0 mm 0.00 in0.0 mm 0.00 in0.0 mm
05:00 AM 34.2°F1.2°C 32.4°F0.2°C 93% 1.2 mph NE1.9 kmh NE 4.5 mph7.2 kmh 29.39 in995.3 mb 0.00 in0.0 mm 0.00 in0.0 mm 0.00 in0.0 mm
05:05 AM 34.2°F1.2°C 32.4°F0.2°C 93% 1.6 mph NE2.6 kmh NE 3.8 mph6.1 kmh 29.39 in995.3 mb 0.00 in0.0 mm 0.00 in0.0 mm 0.00 in0.0 mm
05:10 AM 34.2°F1.2°C 32.4°F0.2°C 93% 0.8 mph NNE1.3 kmh NNE 3.1 mph5.0 kmh 29.39 in995.3 mb 0.00 in0.0 mm 0.00 in0.0 mm 0.00 in0.0 mm
05:15 AM 34.2°F1.2°C 32.4°F0.2°C 93% 0.7 mph NE1.1 kmh NE 3.1 mph5.0 kmh 29.39 in995.3 mb 0.00 in0.0 mm 0.00 in0.0 mm 0.00 in0.0 mm
05:20 AM 34.2°F1.2°C 32.4°F0.2°C 93% 1.0 mph NW1.6 kmh NW 3.1 mph5.0 kmh 29.40 in995.6 mb 0.00 in0.0 mm 0.00 in0.0 mm 0.00 in0.0 mm
05:25 AM 34.2°F1.2°C 32.4°F0.2°C 93% 1.5 mph NE2.4 kmh NE 3.1 mph5.0 kmh 29.40 in995.6 mb 0.00 in0.0 mm 0.00 in0.0 mm 0.00 in0.0 mm
05:30 AM 34.3°F1.3°C 32.5°F0.3°C 93% 1.9 mph E3.1 kmh E 3.8 mph6.1 kmh 29.40 in995.6 mb 0.00 in0.0 mm 0.00 in0.0 mm 0.00 in0.0 mm
05:35 AM 34.3°F1.3°C 32.5°F0.3°C 93% 1.4 mph ESE2.3 kmh ESE 4.5 mph7.2 kmh 29.40 in995.6 mb 0.00 in0.0 mm 0.00 in0.0 mm 0.00 in0.0 mm
05:40 AM 34.3°F1.3°C 32.4°F0.2°C 93% 1.6 mph ENE2.6 kmh ENE 3.1 mph5.0 kmh 29.40 in995.6 mb 0.00 in0.0 mm 0.00 in0.0 mm 0.00 in0.0 mm
05:45 AM 34.3°F1.3°C 32.3°F0.2°C 92% 1.2 mph NE1.9 kmh NE 3.1 mph5.0 kmh 29.40 in995.6 mb 0.00 in0.0 mm 0.00 in0.0 mm 0.00 in0.0 mm
05:50 AM 34.5°F1.4°C 32.4°F0.2°C 92% 1.9 mph WSW3.1 kmh WSW 3.8 mph6.1 kmh 29.40 in995.6 mb 0.00 in0.0 mm 0.00 in0.0 mm 0.00 in0.0 mm
05:55 AM 34.5°F1.4°C 32.4°F0.2°C 92% 1.6 mph NE2.6 kmh NE 3.8 mph6.1 kmh 29.41 in995.9 mb 0.00 in0.0 mm 0.00 in0.0 mm 0.00 in0.0 mm
06:00 AM 34.5°F1.4°C 32.4°F0.2°C 92% 1.9 mph SE3.1 kmh SE 4.5 mph7.2 kmh 29.41 in995.9 mb 0.00 in0.0 mm 0.00 in0.0 mm 0.00 in0.0 mm
06:05 AM 34.3°F1.3°C 32.3°F0.2°C 92% 1.5 mph NNE2.4 kmh NNE 3.8 mph6.1 kmh 29.41 in995.9 mb 0.00 in0.0 mm 0.00 in0.0 mm 0.00 in0.0 mm
06:10 AM 34.3°F1.3°C 32.2°F0.1°C 92% 0.3 mph NNW0.5 kmh NNW 2.2 mph3.5 kmh 29.41 in995.9 mb 0.00 in0.0 mm 0.00 in0.0 mm 0.00 in0.0 mm
06:15 AM 34.2°F1.2°C 32.1°F0.1°C 92% 1.0 mph WNW1.6 kmh WNW 3.1 mph5.0 kmh 29.42 in996.3 mb 0.00 in0.0 mm 0.00 in0.0 mm 0.00 in0.0 mm
06:20 AM 34.1°F1.2°C 32.0°F0.0°C 92% 0.6 mph N1.0 kmh N 2.2 mph3.5 kmh 29.42 in996.3 mb 0.00 in0.0 mm 0.00 in0.0 mm 0.00 in0.0 mm
06:25 AM 34.0°F1.1°C 31.9°F-0.1°C 92% 0.4 mph NNE0.6 kmh NNE 3.1 mph5.0 kmh 29.42 in996.3 mb 0.00 in0.0 mm 0.00 in0.0 mm 0.00 in0.0 mm
06:30 AM 34.0°F1.1°C 31.9°F-0.1°C 92% 0.6 mph NNE1.0 kmh NNE 2.2 mph3.5 kmh 29.42 in996.3 mb 0.00 in0.0 mm 0.00 in0.0 mm 0.00 in0.0 mm
06:35 AM 33.9°F1.1°C 31.8°F-0.1°C 92% 2.1 mph NE3.4 kmh NE 4.5 mph7.2 kmh 29.42 in996.3 mb 0.00 in0.0 mm 0.00 in0.0 mm 0.00 in0.0 mm
06:40 AM 33.9°F1.1°C 31.8°F-0.1°C 92% 1.5 mph NE2.4 kmh NE 3.8 mph6.1 kmh 29.42 in996.3 mb 0.00 in0.0 mm 0.00 in0.0 mm 0.00 in0.0 mm
06:45 AM 34.0°F1.1°C 32.0°F0.0°C 92% 1.9 mph ENE3.1 kmh ENE 4.5 mph7.2 kmh 29.42 in996.3 mb 0.00 in0.0 mm 0.00 in0.0 mm 0.00 in0.0 mm
06:50 AM 34.2°F1.2°C 32.1°F0.1°C 92% 3.3 mph E5.3 kmh E 7.6 mph12.2 kmh 29.42 in996.3 mb 0.00 in0.0 mm 0.00 in0.0 mm 0.00 in0.0 mm
06:55 AM 34.2°F1.2°C 32.1°F0.1°C 92% 2.9 mph E4.7 kmh E 8.3 mph13.4 kmh 29.42 in996.3 mb 0.00 in0.0 mm 0.00 in0.0 mm 0.00 in0.0 mm
07:00 AM 34.2°F1.2°C 32.1°F0.1°C 92% 4.0 mph ENE6.4 kmh ENE 7.6 mph12.2 kmh 29.42 in996.3 mb 0.00 in0.0 mm 0.00 in0.0 mm 0.00 in0.0 mm
07:05 AM 34.2°F1.2°C 32.1°F0.1°C 92% 3.5 mph E5.6 kmh E 6.9 mph11.1 kmh 29.42 in996.3 mb 0.00 in0.0 mm 0.00 in0.0 mm 0.00 in0.0 mm
07:10 AM 34.2°F1.2°C 32.1°F0.1°C 92% 4.1 mph E6.6 kmh E 7.6 mph12.2 kmh 29.42 in996.3 mb 0.00 in0.0 mm 0.00 in0.0 mm 0.00 in0.0 mm
07:15 AM 34.2°F1.2°C 32.0°F0.0°C 92% 4.0 mph ESE6.4 kmh ESE 6.9 mph11.1 kmh 29.42 in996.3 mb 0.00 in0.0 mm 0.00 in0.0 mm 0.00 in0.0 mm
07:20 AM 34.2°F1.2°C 31.8°F-0.1°C 91% 3.4 mph ENE5.5 kmh ENE 6.0 mph9.7 kmh 29.42 in996.3 mb 0.00 in0.0 mm 0.00 in0.0 mm 0.00 in0.0 mm
07:25 AM 34.0°F1.1°C 31.6°F-0.2°C 91% 4.7 mph E7.6 kmh E 9.2 mph14.8 kmh 29.42 in996.3 mb 0.00 in0.0 mm 0.00 in0.0 mm 0.00 in0.0 mm
07:30 AM 34.0°F1.1°C 31.6°F-0.2°C 91% 4.8 mph ESE7.7 kmh ESE 8.3 mph13.4 kmh 29.41 in995.9 mb 0.00 in0.0 mm 0.00 in0.0 mm 0.00 in0.0 mm
07:35 AM 34.1°F1.2°C 31.8°F-0.1°C 91% 4.9 mph ESE7.9 kmh ESE 9.2 mph14.8 kmh 29.41 in995.9 mb 0.00 in0.0 mm 0.00 in0.0 mm 0.00 in0.0 mm
07:40 AM 34.2°F1.2°C 31.9°F-0.1°C 91% 4.2 mph ESE6.8 kmh ESE 8.3 mph13.4 kmh 29.41 in995.9 mb 0.00 in0.0 mm 0.00 in0.0 mm 0.00 in0.0 mm
07:45 AM 34.3°F1.3°C 31.8°F-0.1°C 90% 3.6 mph ESE5.8 kmh ESE 6.0 mph9.7 kmh 29.41 in995.9 mb 0.00 in0.0 mm 0.00 in0.0 mm 0.00 in0.0 mm
07:50 AM 34.3°F1.3°C 31.7°F-0.2°C 90% 2.3 mph E3.7 kmh E 4.5 mph7.2 kmh 29.41 in995.9 mb 0.00 in0.0 mm 0.00 in0.0 mm 0.00 in0.0 mm
07:55 AM 34.2°F1.2°C 31.4°F-0.3°C 90% 2.0 mph E3.2 kmh E 5.4 mph8.7 kmh 29.41 in995.9 mb 0.00 in0.0 mm 0.00 in0.0 mm 0.00 in0.0 mm
08:00 AM 34.1°F1.2°C 31.2°F-0.4°C 89% 3.7 mph ESE6.0 kmh ESE 6.9 mph11.1 kmh 29.41 in995.9 mb 0.00 in0.0 mm 0.00 in0.0 mm 0.00 in0.0 mm
08:05 AM 34.0°F1.1°C 31.1°F-0.5°C 89% 2.4 mph E3.9 kmh E 5.4 mph8.7 kmh 29.42 in996.3 mb 0.00 in0.0 mm 0.00 in0.0 mm 0.00 in0.0 mm
08:10 AM 34.0°F1.1°C 31.1°F-0.5°C 89% 1.7 mph ENE2.7 kmh ENE 3.1 mph5.0 kmh 29.42 in996.3 mb 0.00 in0.0 mm 0.00 in0.0 mm 0.00 in0.0 mm
08:15 AM 34.2°F1.2°C 31.3°F-0.4°C 89% 1.8 mph E2.9 kmh E 3.8 mph6.1 kmh 29.43 in996.6 mb 0.00 in0.0 mm 0.00 in0.0 mm 0.00 in0.0 mm
08:20 AM 34.0°F1.1°C 31.1°F-0.5°C 89% 1.9 mph NNE3.1 kmh NNE 4.5 mph7.2 kmh 29.43 in996.6 mb 0.00 in0.0 mm 0.00 in0.0 mm 0.00 in0.0 mm
08:25 AM 33.8°F1.0°C 30.9°F-0.6°C 89% 4.9 mph E7.9 kmh E 9.2 mph14.8 kmh 29.43 in996.6 mb 0.00 in0.0 mm 0.00 in0.0 mm 0.00 in0.0 mm
08:30 AM 33.7°F0.9°C 30.8°F-0.7°C 89% 5.7 mph E9.2 kmh E 9.8 mph15.8 kmh 29.42 in996.3 mb 0.00 in0.0 mm 0.00 in0.0 mm 0.00 in0.0 mm
08:35 AM 33.6°F0.9°C 30.7°F-0.7°C 89% 4.7 mph E7.6 kmh E 7.6 mph12.2 kmh 29.43 in996.6 mb 0.00 in0.0 mm 0.00 in0.0 mm 0.00 in0.0 mm
08:40 AM 33.6°F0.9°C 30.7°F-0.7°C 89% 4.3 mph ESE6.9 kmh ESE 8.3 mph13.4 kmh 29.43 in996.6 mb 0.00 in0.0 mm 0.00 in0.0 mm 0.00 in0.0 mm
08:45 AM 33.6°F0.9°C 30.7°F-0.7°C 89% 4.3 mph E6.9 kmh E 8.3 mph13.4 kmh 29.43 in996.6 mb 0.00 in0.0 mm 0.00 in0.0 mm 0.00 in0.0 mm
08:50 AM 33.6°F0.9°C 30.7°F-0.7°C 89% 4.0 mph E6.4 kmh E 7.6 mph12.2 kmh 29.43 in996.6 mb 0.00 in0.0 mm 0.00 in0.0 mm 0.00 in0.0 mm
08:55 AM 33.7°F0.9°C 30.8°F-0.7°C 89% 2.8 mph E4.5 kmh E 6.9 mph11.1 kmh 29.44 in997.0 mb 0.00 in0.0 mm 0.00 in0.0 mm 0.00 in0.0 mm
09:00 AM 33.8°F1.0°C 30.9°F-0.6°C 89% 1.6 mph ENE2.6 kmh ENE 3.8 mph6.1 kmh 29.44 in997.0 mb 0.00 in0.0 mm 0.00 in0.0 mm 0.00 in0.0 mm
09:05 AM 33.8°F1.0°C 30.9°F-0.6°C 89% 1.4 mph NE2.3 kmh NE 2.2 mph3.5 kmh 29.43 in996.6 mb 0.00 in0.0 mm 0.00 in0.0 mm 0.00 in0.0 mm
09:10 AM 34.0°F1.1°C 31.1°F-0.5°C 89% 2.1 mph ENE3.4 kmh ENE 4.5 mph7.2 kmh 29.43 in996.6 mb 0.00 in0.0 mm 0.00 in0.0 mm 0.00 in0.0 mm
09:15 AM 34.3°F1.3°C 31.4°F-0.3°C 89% 1.3 mph N2.1 kmh N 5.4 mph8.7 kmh 29.44 in997.0 mb 0.00 in0.0 mm 0.00 in0.0 mm 0.00 in0.0 mm
09:20 AM 34.3°F1.3°C 31.4°F-0.3°C 89% 0.8 mph 1.3 kmh 3.8 mph6.1 kmh 29.44 in997.0 mb 0.00 in0.0 mm 0.00 in0.0 mm 0.00 in0.0 mm
09:25 AM 34.3°F1.3°C 31.4°F-0.3°C 89% 2.6 mph SSW4.2 kmh SSW 7.6 mph12.2 kmh 29.44 in997.0 mb 0.00 in0.0 mm 0.00 in0.0 mm 0.00 in0.0 mm
09:30 AM 34.4°F1.3°C 31.5°F-0.3°C 89% 3.8 mph S6.1 kmh S 6.9 mph11.1 kmh 29.44 in997.0 mb 0.00 in0.0 mm 0.00 in0.0 mm 0.00 in0.0 mm
09:35 AM 34.5°F1.4°C 31.6°F-0.2°C 89% 3.3 mph SSW5.3 kmh SSW 6.9 mph11.1 kmh 29.44 in997.0 mb 0.00 in0.0 mm 0.00 in0.0 mm 0.00 in0.0 mm
09:40 AM 34.7°F1.5°C 31.8°F-0.1°C 89% 4.9 mph S7.9 kmh S 8.3 mph13.4 kmh 29.44 in997.0 mb 0.00 in0.0 mm 0.00 in0.0 mm 0.00 in0.0 mm
09:45 AM 34.7°F1.5°C 31.8°F-0.1°C 89% 3.9 mph SE6.3 kmh SE 9.2 mph14.8 kmh 29.44 in997.0 mb 0.00 in0.0 mm 0.00 in0.0 mm 0.00 in0.0 mm
09:50 AM 34.9°F1.6°C 32.0°F0.0°C 89% 4.1 mph SSW6.6 kmh SSW 7.6 mph12.2 kmh 29.44 in997.0 mb 0.00 in0.0 mm 0.00 in0.0 mm 0.00 in0.0 mm
09:55 AM 34.9°F1.6°C 32.0°F0.0°C 89% 2.0 mph SSE3.2 kmh SSE 4.5 mph7.2 kmh 29.44 in997.0 mb 0.00 in0.0 mm 0.00 in0.0 mm 0.00 in0.0 mm
10:00 AM 35.1°F1.7°C 32.2°F0.1°C 89% 1.3 mph NNW2.1 kmh NNW 3.8 mph6.1 kmh 29.43 in996.6 mb 0.00 in0.0 mm 0.00 in0.0 mm 0.00 in0.0 mm
10:05 AM 35.2°F1.8°C 32.5°F0.3°C 90% 2.6 mph WSW4.2 kmh WSW 6.0 mph9.7 kmh 29.43 in996.6 mb 0.00 in0.0 mm 0.00 in0.0 mm 0.00 in0.0 mm
10:10 AM 35.2°F1.8°C 32.3°F0.2°C 89% 3.5 mph SSW5.6 kmh SSW 6.9 mph11.1 kmh 29.43 in996.6 mb 0.00 in0.0 mm 0.00 in0.0 mm 0.00 in0.0 mm
10:15 AM 35.3°F1.8°C 32.5°F0.3°C 89% 4.8 mph S7.7 kmh S 10.7 mph17.2 kmh 29.43 in996.6 mb 0.00 in0.0 mm 0.00 in0.0 mm 0.00 in0.0 mm
10:20 AM 35.7°F2.1°C 32.6°F0.3°C 89% 5.7 mph S9.2 kmh S 9.8 mph15.8 kmh 29.43 in996.6 mb 0.00 in0.0 mm 0.00 in0.0 mm 0.00 in0.0 mm
10:25 AM 35.8°F2.1°C 32.6°F0.3°C 88% 5.6 mph S9.0 kmh S 9.2 mph14.8 kmh 29.43 in996.6 mb 0.00 in0.0 mm 0.00 in0.0 mm 0.00 in0.0 mm
10:30 AM 36.0°F2.2°C 32.8°F0.4°C 88% 5.6 mph SSE9.0 kmh SSE 9.8 mph15.8 kmh 29.42 in996.3 mb 0.00 in0.0 mm 0.00 in0.0 mm 0.00 in0.0 mm
10:35 AM 36.2°F2.3°C 32.9°F0.5°C 88% 4.4 mph SSW7.1 kmh SSW 8.3 mph13.4 kmh 29.42 in996.3 mb 0.01 in0.3 mm 0.12 in3.0 mm 0.01 in0.3 mm
10:40 AM 36.4°F2.4°C 32.9°F0.5°C 87% 3.9 mph SSW6.3 kmh SSW 9.2 mph14.8 kmh 29.42 in996.3 mb 0.01 in0.3 mm 0.00 in0.0 mm 0.01 in0.3 mm
10:45 AM 36.8°F2.7°C 33.2°F0.7°C 87% 4.8 mph SW7.7 kmh SW 9.2 mph14.8 kmh 29.42 in996.3 mb 0.01 in0.3 mm 0.00 in0.0 mm 0.01 in0.3 mm
10:50 AM 36.9°F2.7°C 33.1°F0.6°C 86% 4.0 mph SSW6.4 kmh SSW 7.6 mph12.2 kmh 29.42 in996.3 mb 0.01 in0.3 mm 0.00 in0.0 mm 0.01 in0.3 mm
10:55 AM 37.0°F2.8°C 33.0°F0.6°C 85% 5.7 mph SW9.2 kmh SW 9.8 mph15.8 kmh 29.43 in996.6 mb 0.01 in0.3 mm 0.00 in0.0 mm 0.01 in0.3 mm
11:00 AM 37.0°F2.8°C 32.9°F0.5°C 85% 5.3 mph SSW8.5 kmh SSW 9.8 mph15.8 kmh 29.43 in996.6 mb 0.01 in0.3 mm 0.00 in0.0 mm 0.01 in0.3 mm
11:05 AM 37.0°F2.8°C 32.7°F0.4°C 84% 5.7 mph S9.2 kmh S 9.8 mph15.8 kmh 29.44 in997.0 mb 0.01 in0.3 mm 0.00 in0.0 mm 0.01 in0.3 mm
11:10 AM 37.1°F2.8°C 32.8°F0.4°C 84% 4.9 mph SW7.9 kmh SW 9.2 mph14.8 kmh 29.44 in997.0 mb 0.01 in0.3 mm 0.00 in0.0 mm 0.01 in0.3 mm
11:15 AM 37.0°F2.8°C 32.5°F0.3°C 84% 2.9 mph S4.7 kmh S 7.6 mph12.2 kmh 29.43 in996.6 mb 0.01 in0.3 mm 0.00 in0.0 mm 0.01 in0.3 mm
11:20 AM 37.0°F2.8°C 32.3°F0.2°C 83% 5.1 mph SW8.2 kmh SW 9.2 mph14.8 kmh 29.43 in996.6 mb 0.01 in0.3 mm 0.00 in0.0 mm 0.01 in0.3 mm
11:25 AM 36.9°F2.7°C 32.2°F0.1°C 83% 4.7 mph SSW7.6 kmh SSW 7.6 mph12.2 kmh 29.44 in997.0 mb 0.01 in0.3 mm 0.00 in0.0 mm 0.01 in0.3 mm
11:30 AM 36.9°F2.7°C 32.2°F0.1°C 83% 4.2 mph SW6.8 kmh SW 7.6 mph12.2 kmh 29.44 in997.0 mb 0.01 in0.3 mm 0.00 in0.0 mm 0.01 in0.3 mm
11:35 AM 36.9°F2.7°C 32.5°F0.3°C 84% 3.4 mph WSW5.5 kmh WSW 7.6 mph12.2 kmh 29.44 in997.0 mb 0.01 in0.3 mm 0.00 in0.0 mm 0.02 in0.5 mm
11:40 AM 36.9°F2.7°C 32.5°F0.3°C 84% 5.0 mph SW8.0 kmh SW 9.2 mph14.8 kmh 29.44 in997.0 mb 0.01 in0.3 mm 0.00 in0.0 mm 0.02 in0.5 mm
11:45 AM 37.0°F2.8°C 32.6°F0.3°C 84% 4.6 mph SSW7.4 kmh SSW 7.6 mph12.2 kmh 29.43 in996.6 mb 0.01 in0.3 mm 0.00 in0.0 mm 0.02 in0.5 mm
11:50 AM 37.0°F2.8°C 32.7°F0.4°C 84% 4.7 mph S7.6 kmh S 8.3 mph13.4 kmh 29.43 in996.6 mb 0.01 in0.3 mm 0.00 in0.0 mm 0.02 in0.5 mm
11:55 AM 37.0°F2.8°C 32.7°F0.4°C 84% 5.2 mph S8.4 kmh S 10.7 mph17.2 kmh 29.43 in996.6 mb 0.01 in0.3 mm 0.00 in0.0 mm 0.02 in0.5 mm
12:00 PM 37.2°F2.9°C 32.8°F0.4°C 84% 4.2 mph S6.8 kmh S 6.0 mph9.7 kmh 29.43 in996.6 mb 0.01 in0.3 mm 0.00 in0.0 mm 0.02 in0.5 mm
12:05 PM 37.2°F2.9°C 32.8°F0.4°C 84% 3.8 mph SSW6.1 kmh SSW 6.0 mph9.7 kmh 29.43 in996.6 mb 0.01 in0.3 mm 0.00 in0.0 mm 0.02 in0.5 mm
12:10 PM 37.3°F2.9°C 33.3°F0.7°C 85% 4.5 mph SW7.2 kmh SW 9.8 mph15.8 kmh 29.43 in996.6 mb 0.01 in0.3 mm 0.00 in0.0 mm 0.02 in0.5 mm
12:15 PM 37.4°F3.0°C 34.2°F1.2°C 88% 5.6 mph SW9.0 kmh SW 12.1 mph19.5 kmh 29.43 in996.6 mb 0.01 in0.3 mm 0.00 in0.0 mm 0.02 in0.5 mm
12:20 PM 37.4°F3.0°C 34.2°F1.2°C 88% 5.0 mph S8.0 kmh S 10.7 mph17.2 kmh 29.43 in996.6 mb 0.01 in0.3 mm 0.00 in0.0 mm 0.02 in0.5 mm
12:25 PM 37.4°F3.0°C 34.2°F1.2°C 88% 6.1 mph SW9.8 kmh SW 10.7 mph17.2 kmh 29.43 in996.6 mb 0.01 in0.3 mm 0.00 in0.0 mm 0.02 in0.5 mm
12:30 PM 37.5°F3.1°C 34.2°F1.2°C 88% 5.7 mph SW9.2 kmh SW 10.7 mph17.2 kmh 29.43 in996.6 mb 0.01 in0.3 mm 0.00 in0.0 mm 0.02 in0.5 mm
12:35 PM 37.5°F3.1°C 34.3°F1.3°C 88% 4.9 mph SW7.9 kmh SW 10.7 mph17.2 kmh 29.43 in996.6 mb 0.00 in0.0 mm 0.00 in0.0 mm 0.02 in0.5 mm
12:40 PM 37.4°F3.0°C 34.2°F1.2°C 88% 5.4 mph WSW8.7 kmh WSW 11.4 mph18.3 kmh 29.43 in996.6 mb 0.00 in0.0 mm 0.00 in0.0 mm 0.02 in0.5 mm
12:45 PM 37.3°F2.9°C 34.0°F1.1°C 88% 5.3 mph S8.5 kmh S 9.2 mph14.8 kmh 29.44 in997.0 mb 0.00 in0.0 mm 0.00 in0.0 mm 0.02 in0.5 mm
12:50 PM 37.2°F2.9°C 33.1°F0.6°C 85% 5.0 mph SW8.0 kmh SW 8.3 mph13.4 kmh 29.44 in997.0 mb 0.00 in0.0 mm 0.00 in0.0 mm 0.02 in0.5 mm
12:55 PM 37.2°F2.9°C 33.3°F0.7°C 86% 5.7 mph SW9.2 kmh SW 9.8 mph15.8 kmh 29.44 in997.0 mb 0.00 in0.0 mm 0.00 in0.0 mm 0.02 in0.5 mm
01:00 PM 37.0°F2.8°C 33.3°F0.7°C 86% 6.6 mph S10.6 kmh S 11.4 mph18.3 kmh 29.44 in997.0 mb 0.01 in0.3 mm 0.01 in0.3 mm 0.04 in1.0 mm
01:05 PM 37.0°F2.8°C 33.5°F0.8°C 87% 6.6 mph SW10.6 kmh SW 11.4 mph18.3 kmh 29.44 in997.0 mb 0.01 in0.3 mm 0.00 in0.0 mm 0.04 in1.0 mm
01:10 PM 37.0°F2.8°C 33.6°F0.9°C 87% 5.6 mph WSW9.0 kmh WSW 15.2 mph24.5 kmh 29.44 in997.0 mb 0.01 in0.3 mm 0.00 in0.0 mm 0.04 in1.0 mm
01:15 PM 37.0°F2.8°C 33.8°F1.0°C 88% 5.6 mph SW9.0 kmh SW 10.7 mph17.2 kmh 29.44 in997.0 mb 0.02 in0.5 mm 0.12 in3.0 mm 0.05 in1.3 mm
01:20 PM 37.0°F2.8°C 34.0°F1.1°C 89% 6.6 mph WSW10.6 kmh WSW 11.4 mph18.3 kmh 29.44 in997.0 mb 0.04 in1.0 mm 0.24 in6.1 mm 0.06 in1.5 mm
01:25 PM 37.0°F2.8°C 34.2°F1.2°C 89% 7.6 mph SW12.2 kmh SW 10.7 mph17.2 kmh 29.44 in997.0 mb 0.04 in1.0 mm 0.00 in0.0 mm 0.06 in1.5 mm
01:30 PM 37.0°F2.8°C 34.4°F1.3°C 90% 7.1 mph W11.4 kmh W 11.4 mph18.3 kmh 29.44 in997.0 mb 0.05 in1.3 mm 0.12 in3.0 mm 0.07 in1.8 mm
01:35 PM 37.0°F2.8°C 34.4°F1.3°C 90% 7.3 mph SW11.7 kmh SW 13.0 mph20.9 kmh 29.44 in997.0 mb 0.05 in1.3 mm 0.00 in0.0 mm 0.07 in1.8 mm
01:40 PM 37.0°F2.8°C 34.7°F1.5°C 91% 8.0 mph S12.9 kmh S 12.1 mph19.5 kmh 29.44 in997.0 mb 0.06 in1.5 mm 0.12 in3.0 mm 0.08 in2.0 mm
01:45 PM 37.2°F2.9°C 34.8°F1.6°C 91% 7.0 mph SSW11.3 kmh SSW 11.4 mph18.3 kmh 29.44 in997.0 mb 0.06 in1.5 mm 0.00 in0.0 mm 0.08 in2.0 mm
01:50 PM 37.1°F2.8°C 34.7°F1.5°C 91% 7.6 mph S12.2 kmh S 13.6 mph21.9 kmh 29.44 in997.0 mb 0.07 in1.8 mm 0.12 in3.0 mm 0.09 in2.3 mm
01:55 PM 37.0°F2.8°C 34.7°F1.5°C 91% 6.5 mph SW10.5 kmh SW 13.0 mph20.9 kmh 29.45 in997.3 mb 0.07 in1.8 mm 0.00 in0.0 mm 0.09 in2.3 mm
02:00 PM 37.0°F2.8°C 34.7°F1.5°C 91% 6.5 mph NW10.5 kmh NW 10.7 mph17.2 kmh 29.45 in997.3 mb 0.07 in1.8 mm 0.00 in0.0 mm 0.11 in2.8 mm
02:05 PM 37.0°F2.8°C 34.7°F1.5°C 91% 6.0 mph NW9.7 kmh NW 9.2 mph14.8 kmh 29.44 in997.0 mb 0.07 in1.8 mm 0.00 in0.0 mm 0.11 in2.8 mm
02:10 PM 37.1°F2.8°C 34.7°F1.5°C 91% 5.7 mph WNW9.2 kmh WNW 9.2 mph14.8 kmh 29.44 in997.0 mb 0.07 in1.8 mm 0.00 in0.0 mm 0.11 in2.8 mm
02:15 PM 37.2°F2.9°C 35.0°F1.7°C 92% 5.6 mph S9.0 kmh S 10.7 mph17.2 kmh 29.44 in997.0 mb 0.07 in1.8 mm 0.00 in0.0 mm 0.12 in3.0 mm
02:20 PM 37.2°F2.9°C 35.1°F1.7°C 92% 6.7 mph SSW10.8 kmh SSW 13.0 mph20.9 kmh 29.45 in997.3 mb 0.06 in1.5 mm 0.00 in0.0 mm 0.12 in3.0 mm
02:25 PM 37.3°F2.9°C 35.9°F2.2°C 95% 6.5 mph S10.5 kmh S 11.4 mph18.3 kmh 29.45 in997.3 mb 0.06 in1.5 mm 0.00 in0.0 mm 0.12 in3.0 mm
02:30 PM 37.4°F3.0°C 36.4°F2.4°C 96% 6.6 mph NE10.6 kmh NE 12.1 mph19.5 kmh 29.45 in997.3 mb 0.05 in1.3 mm 0.00 in0.0 mm 0.12 in3.0 mm
02:35 PM 37.4°F3.0°C 36.4°F2.4°C 96% 6.1 mph NW9.8 kmh NW 11.4 mph18.3 kmh 29.45 in997.3 mb 0.05 in1.3 mm 0.00 in0.0 mm 0.12 in3.0 mm
02:40 PM 37.4°F3.0°C 36.4°F2.4°C 96% 5.8 mph SW9.3 kmh SW 12.1 mph19.5 kmh 29.45 in997.3 mb 0.04 in1.0 mm 0.00 in0.0 mm 0.12 in3.0 mm
02:45 PM 37.4°F3.0°C 36.4°F2.4°C 96% 7.5 mph SSW12.1 kmh SSW 15.9 mph25.6 kmh 29.45 in997.3 mb 0.04 in1.0 mm 0.00 in0.0 mm 0.12 in3.0 mm
02:50 PM 37.5°F3.1°C 36.5°F2.5°C 96% 6.6 mph SSW10.6 kmh SSW 12.1 mph19.5 kmh 29.46 in997.6 mb 0.02 in0.5 mm 0.00 in0.0 mm 0.12 in3.0 mm
02:55 PM 37.6°F3.1°C 36.5°F2.5°C 96% 6.8 mph SE10.9 kmh SE 12.1 mph19.5 kmh 29.46 in997.6 mb 0.02 in0.5 mm 0.00 in0.0 mm 0.12 in3.0 mm
03:00 PM 37.6°F3.1°C 36.5°F2.5°C 96% 6.0 mph SW9.7 kmh SW 10.7 mph17.2 kmh 29.47 in998.0 mb 0.01 in0.3 mm 0.00 in0.0 mm 0.12 in3.0 mm
03:05 PM 37.6°F3.1°C 36.6°F2.6°C 96% 6.9 mph SW11.1 kmh SW 13.0 mph20.9 kmh 29.47 in998.0 mb 0.01 in0.3 mm 0.00 in0.0 mm 0.12 in3.0 mm
03:10 PM 37.7°F3.2°C 36.7°F2.6°C 96% 5.1 mph SW8.2 kmh SW 10.7 mph17.2 kmh 29.48 in998.3 mb 0.01 in0.3 mm 0.00 in0.0 mm 0.12 in3.0 mm
03:15 PM 37.8°F3.2°C 36.7°F2.6°C 96% 5.1 mph SW8.2 kmh SW 9.8 mph15.8 kmh 29.48 in998.3 mb 0.00 in0.0 mm 0.00 in0.0 mm 0.12 in3.0 mm
03:20 PM 37.8°F3.2°C 36.7°F2.6°C 96% 6.4 mph SW10.3 kmh SW 9.8 mph15.8 kmh 29.48 in998.3 mb 0.00 in0.0 mm 0.00 in0.0 mm 0.12 in3.0 mm
03:25 PM 37.8°F3.2°C 36.7°F2.6°C 96% 7.4 mph W11.9 kmh W 13.0 mph20.9 kmh 29.48 in998.3 mb 0.00 in0.0 mm 0.00 in0.0 mm 0.12 in3.0 mm
03:30 PM 38.0°F3.3°C 36.9°F2.7°C 96% 6.5 mph SSW10.5 kmh SSW 15.2 mph24.5 kmh 29.48 in998.3 mb 0.00 in0.0 mm 0.00 in0.0 mm 0.12 in3.0 mm
03:35 PM 38.2°F3.4°C 37.2°F2.9°C 96% 4.9 mph SSW7.9 kmh SSW 11.4 mph18.3 kmh 29.49 in998.6 mb 0.00 in0.0 mm 0.00 in0.0 mm 0.12 in3.0 mm
03:40 PM 38.3°F3.5°C 37.3°F2.9°C 96% 4.9 mph S7.9 kmh S 8.3 mph13.4 kmh 29.49 in998.6 mb 0.00 in0.0 mm 0.00 in0.0 mm 0.12 in3.0 mm
03:45 PM 38.2°F3.4°C 36.9°F2.7°C 95% 5.0 mph SW8.0 kmh SW 8.3 mph13.4 kmh 29.49 in998.6 mb 0.00 in0.0 mm 0.00 in0.0 mm 0.12 in3.0 mm
03:50 PM 38.1°F3.4°C 36.8°F2.7°C 95% 4.3 mph SW6.9 kmh SW 8.3 mph13.4 kmh 29.50 in999.0 mb 0.00 in0.0 mm 0.00 in0.0 mm 0.12 in3.0 mm
03:55 PM 37.9°F3.3°C 36.6°F2.6°C 95% 5.5 mph SSW8.9 kmh SSW 11.4 mph18.3 kmh 29.50 in999.0 mb 0.00 in0.0 mm 0.00 in0.0 mm 0.12 in3.0 mm
04:00 PM 37.9°F3.3°C 36.6°F2.6°C 95% 5.6 mph S9.0 kmh S 9.8 mph15.8 kmh 29.50 in999.0 mb 0.00 in0.0 mm 0.00 in0.0 mm 0.12 in3.0 mm
04:05 PM 37.9°F3.3°C 36.6°F2.6°C 95% 5.4 mph S8.7 kmh S 8.3 mph13.4 kmh 29.51 in999.3 mb 0.00 in0.0 mm 0.00 in0.0 mm 0.12 in3.0 mm
04:10 PM 38.1°F3.4°C 36.8°F2.7°C 95% 5.9 mph S9.5 kmh S 10.7 mph17.2 kmh 29.51 in999.3 mb 0.00 in0.0 mm 0.00 in0.0 mm 0.12 in3.0 mm
04:15 PM 38.8°F3.8°C 37.4°F3.0°C 95% 5.7 mph W9.2 kmh W 9.2 mph14.8 kmh 29.52 in999.7 mb 0.00 in0.0 mm 0.00 in0.0 mm 0.12 in3.0 mm
04:20 PM 38.9°F3.8°C 37.4°F3.0°C 94% 5.9 mph SW9.5 kmh SW 10.7 mph17.2 kmh 29.52 in999.7 mb 0.00 in0.0 mm 0.00 in0.0 mm 0.12 in3.0 mm
04:25 PM 39.0°F3.9°C 37.3°F2.9°C 93% 5.6 mph SW9.0 kmh SW 11.4 mph18.3 kmh 29.52 in999.7 mb 0.00 in0.0 mm 0.00 in0.0 mm 0.12 in3.0 mm
04:30 PM 39.0°F3.9°C 37.1°F2.8°C 93% 6.4 mph WSW10.3 kmh WSW 9.2 mph14.8 kmh 29.53 in1000.0 mb 0.00 in0.0 mm 0.00 in0.0 mm 0.12 in3.0 mm
04:35 PM 39.0°F3.9°C 36.9°F2.7°C 92% 5.9 mph SSW9.5 kmh SSW 9.2 mph14.8 kmh 29.53 in1000.0 mb 0.00 in0.0 mm 0.00 in0.0 mm 0.12 in3.0 mm
04:40 PM 39.0°F3.9°C 36.8°F2.7°C 92% 6.6 mph SSW10.6 kmh SSW 10.7 mph17.2 kmh 29.53 in1000.0 mb 0.00 in0.0 mm 0.00 in0.0 mm 0.12 in3.0 mm
04:45 PM 38.8°F3.8°C 36.4°F2.4°C 91% 5.4 mph S8.7 kmh S 9.2 mph14.8 kmh 29.54 in1000.3 mb 0.00 in0.0 mm 0.00 in0.0 mm 0.12 in3.0 mm
04:50 PM 38.7°F3.7°C 36.3°F2.4°C 91% 4.9 mph S7.9 kmh S 8.3 mph13.4 kmh 29.54 in1000.3 mb 0.00 in0.0 mm 0.00 in0.0 mm 0.12 in3.0 mm
04:55 PM 38.5°F3.6°C 36.1°F2.3°C 91% 4.3 mph SW6.9 kmh SW 8.3 mph13.4 kmh 29.55 in1000.7 mb 0.00 in0.0 mm 0.00 in0.0 mm 0.12 in3.0 mm
05:00 PM 38.5°F3.6°C 36.1°F2.3°C 91% 5.0 mph S8.0 kmh S 8.3 mph13.4 kmh 29.55 in1000.7 mb 0.00 in0.0 mm 0.00 in0.0 mm 0.12 in3.0 mm
05:05 PM 38.5°F3.6°C 36.1°F2.3°C 91% 4.4 mph SW7.1 kmh SW 8.3 mph13.4 kmh 29.55 in1000.7 mb 0.00 in0.0 mm 0.00 in0.0 mm 0.12 in3.0 mm
05:10 PM 38.7°F3.7°C 36.3°F2.4°C 91% 4.7 mph SW7.6 kmh SW 8.3 mph13.4 kmh 29.55 in1000.7 mb 0.00 in0.0 mm 0.00 in0.0 mm 0.12 in3.0 mm
05:15 PM 38.8°F3.8°C 36.4°F2.4°C 91% 4.3 mph WSW6.9 kmh WSW 8.3 mph13.4 kmh 29.55 in1000.7 mb 0.00 in0.0 mm 0.00 in0.0 mm 0.12 in3.0 mm
05:20 PM 38.8°F3.8°C 36.4°F2.4°C 91% 4.0 mph SW6.4 kmh SW 7.6 mph12.2 kmh 29.55 in1000.7 mb 0.00 in0.0 mm 0.00 in0.0 mm 0.12 in3.0 mm
05:25 PM 38.8°F3.8°C 36.4°F2.4°C 91% 4.1 mph WSW6.6 kmh WSW 7.6 mph12.2 kmh 29.55 in1000.7 mb 0.00 in0.0 mm 0.00 in0.0 mm 0.12 in3.0 mm
05:30 PM 38.9°F3.8°C 36.5°F2.5°C 91% 3.5 mph SW5.6 kmh SW 6.9 mph11.1 kmh 29.56 in1001.0 mb 0.00 in0.0 mm 0.00 in0.0 mm 0.12 in3.0 mm
05:35 PM 39.0°F3.9°C 36.6°F2.6°C 91% 3.6 mph SW5.8 kmh SW 6.9 mph11.1 kmh 29.57 in1001.4 mb 0.00 in0.0 mm 0.00 in0.0 mm 0.12 in3.0 mm
05:40 PM 39.0°F3.9°C 36.3°F2.4°C 90% 3.5 mph S5.6 kmh S 6.9 mph11.1 kmh 29.57 in1001.4 mb 0.00 in0.0 mm 0.00 in0.0 mm 0.12 in3.0 mm
05:45 PM 39.0°F3.9°C 36.3°F2.4°C 90% 5.3 mph S8.5 kmh S 9.2 mph14.8 kmh 29.57 in1001.4 mb 0.00 in0.0 mm 0.00 in0.0 mm 0.12 in3.0 mm
05:50 PM 39.0°F3.9°C 36.3°F2.4°C 90% 5.3 mph SW8.5 kmh SW 9.8 mph15.8 kmh 29.57 in1001.4 mb 0.00 in0.0 mm 0.00 in0.0 mm 0.12 in3.0 mm
05:55 PM 39.2°F4.0°C 35.9°F2.2°C 88% 4.1 mph SW6.6 kmh SW 8.3 mph13.4 kmh 29.57 in1001.4 mb 0.00 in0.0 mm 0.00 in0.0 mm 0.12 in3.0 mm
06:00 PM 39.2°F4.0°C 35.9°F2.2°C 88% 5.3 mph SW8.5 kmh SW 9.8 mph15.8 kmh 29.58 in1001.7 mb 0.00 in0.0 mm 0.00 in0.0 mm 0.12 in3.0 mm
06:05 PM 39.2°F4.0°C 35.9°F2.2°C 88% 6.9 mph W11.1 kmh W 9.8 mph15.8 kmh 29.58 in1001.7 mb 0.00 in0.0 mm 0.00 in0.0 mm 0.12 in3.0 mm
06:10 PM 39.2°F4.0°C 35.8°F2.1°C 88% 6.5 mph WSW10.5 kmh WSW 10.7 mph17.2 kmh 29.59 in1002.0 mb 0.00 in0.0 mm 0.00 in0.0 mm 0.12 in3.0 mm
06:15 PM 39.3°F4.1°C 35.8°F2.1°C 87% 6.4 mph SW10.3 kmh SW 11.4 mph18.3 kmh 29.58 in1001.7 mb 0.00 in0.0 mm 0.00 in0.0 mm 0.12 in3.0 mm
06:20 PM 39.3°F4.1°C 35.8°F2.1°C 87% 5.7 mph W9.2 kmh W 9.8 mph15.8 kmh 29.58 in1001.7 mb 0.00 in0.0 mm 0.00 in0.0 mm 0.12 in3.0 mm
06:25 PM 39.3°F4.1°C 35.8°F2.1°C 87% 5.0 mph SW8.0 kmh SW 9.2 mph14.8 kmh 29.59 in1002.0 mb 0.00 in0.0 mm 0.00 in0.0 mm 0.12 in3.0 mm
06:30 PM 39.3°F4.1°C 35.8°F2.1°C 87% 5.9 mph WSW9.5 kmh WSW 9.8 mph15.8 kmh 29.59 in1002.0 mb 0.00 in0.0 mm 0.00 in0.0 mm 0.12 in3.0 mm
06:35 PM 39.4°F4.1°C 35.6°F2.0°C 86% 5.3 mph WSW8.5 kmh WSW 12.1 mph19.5 kmh 29.60 in1002.4 mb 0.00 in0.0 mm 0.00 in0.0 mm 0.12 in3.0 mm
06:40 PM 39.2°F4.0°C 35.4°F1.9°C 86% 6.0 mph SW9.7 kmh SW 10.7 mph17.2 kmh 29.60 in1002.4 mb 0.00 in0.0 mm 0.00 in0.0 mm 0.12 in3.0 mm
06:45 PM 39.2°F4.0°C 35.4°F1.9°C 86% 5.7 mph W9.2 kmh W 9.2 mph14.8 kmh 29.61 in1002.7 mb 0.00 in0.0 mm 0.00 in0.0 mm 0.12 in3.0 mm
06:50 PM 39.0°F3.9°C 35.4°F1.9°C 87% 4.9 mph WSW7.9 kmh WSW 9.8 mph15.8 kmh 29.62 in1003.0 mb 0.00 in0.0 mm 0.00 in0.0 mm 0.12 in3.0 mm
06:55 PM 38.8°F3.8°C 35.3°F1.8°C 87% 5.0 mph WSW8.0 kmh WSW 9.2 mph14.8 kmh 29.63 in1003.4 mb 0.00 in0.0 mm 0.00 in0.0 mm 0.12 in3.0 mm
07:00 PM 38.7°F3.7°C 35.1°F1.7°C 87% 5.7 mph SW9.2 kmh SW 9.2 mph14.8 kmh 29.63 in1003.4 mb 0.00 in0.0 mm 0.00 in0.0 mm 0.12 in3.0 mm
07:05 PM 38.5°F3.6°C 35.0°F1.7°C 87% 5.4 mph W8.7 kmh W 11.4 mph18.3 kmh 29.64 in1003.7 mb 0.00 in0.0 mm 0.00 in0.0 mm 0.12 in3.0 mm
07:10 PM 38.4°F3.6°C 34.9°F1.6°C 87% 5.3 mph WSW8.5 kmh WSW 9.2 mph14.8 kmh 29.64 in1003.7 mb 0.00 in0.0 mm 0.00 in0.0 mm 0.12 in3.0 mm
07:15 PM 38.3°F3.5°C 34.8°F1.6°C 87% 6.0 mph NW9.7 kmh NW 9.8 mph15.8 kmh 29.64 in1003.7 mb 0.00 in0.0 mm 0.00 in0.0 mm 0.12 in3.0 mm
07:20 PM 38.4°F3.6°C 35.1°F1.7°C 88% 5.6 mph WSW9.0 kmh WSW 9.8 mph15.8 kmh 29.64 in1003.7 mb 0.00 in0.0 mm 0.00 in0.0 mm 0.12 in3.0 mm
07:25 PM 38.3°F3.5°C 35.1°F1.7°C 88% 6.0 mph WSW9.7 kmh WSW 10.7 mph17.2 kmh 29.65 in1004.1 mb 0.00 in0.0 mm 0.00 in0.0 mm 0.12 in3.0 mm
07:30 PM 38.1°F3.4°C 34.9°F1.6°C 88% 5.8 mph WSW9.3 kmh WSW 9.2 mph14.8 kmh 29.66 in1004.4 mb 0.00 in0.0 mm 0.00 in0.0 mm 0.12 in3.0 mm
07:35 PM 38.2°F3.4°C 34.9°F1.6°C 88% 4.9 mph WSW7.9 kmh WSW 9.8 mph15.8 kmh 29.66 in1004.4 mb 0.00 in0.0 mm 0.00 in0.0 mm 0.12 in3.0 mm
07:40 PM 38.1°F3.4°C 34.9°F1.6°C 88% 5.3 mph NW8.5 kmh NW 13.0 mph20.9 kmh 29.66 in1004.4 mb 0.00 in0.0 mm 0.00 in0.0 mm 0.12 in3.0 mm
07:45 PM 38.2°F3.4°C 34.9°F1.6°C 88% 6.0 mph WSW9.7 kmh WSW 10.7 mph17.2 kmh 29.67 in1004.7 mb 0.00 in0.0 mm 0.00 in0.0 mm 0.12 in3.0 mm
07:50 PM 38.3°F3.5°C 35.1°F1.7°C 88% 5.1 mph WNW8.2 kmh WNW 8.3 mph13.4 kmh 29.67 in1004.7 mb 0.00 in0.0 mm 0.00 in0.0 mm 0.12 in3.0 mm
07:55 PM 38.3°F3.5°C 34.9°F1.6°C 87% 6.4 mph WNW10.3 kmh WNW 11.4 mph18.3 kmh 29.68 in1005.1 mb 0.00 in0.0 mm 0.00 in0.0 mm 0.12 in3.0 mm
08:00 PM 38.3°F3.5°C 34.8°F1.6°C 87% 5.2 mph WSW8.4 kmh WSW 9.2 mph14.8 kmh 29.68 in1005.1 mb 0.00 in0.0 mm 0.00 in0.0 mm 0.12 in3.0 mm
08:05 PM 38.3°F3.5°C 34.8°F1.6°C 87% 3.8 mph SW6.1 kmh SW 6.0 mph9.7 kmh 29.68 in1005.1 mb 0.00 in0.0 mm 0.00 in0.0 mm 0.12 in3.0 mm
08:10 PM 38.4°F3.6°C 34.7°F1.5°C 86% 4.7 mph WSW7.6 kmh WSW 8.3 mph13.4 kmh 29.68 in1005.1 mb 0.00 in0.0 mm 0.00 in0.0 mm 0.12 in3.0 mm
08:15 PM 38.5°F3.6°C 34.7°F1.5°C 86% 3.4 mph SW5.5 kmh SW 5.4 mph8.7 kmh 29.68 in1005.1 mb 0.00 in0.0 mm 0.00 in0.0 mm 0.12 in3.0 mm
08:20 PM 38.3°F3.5°C 34.3°F1.3°C 85% 4.6 mph SW7.4 kmh SW 9.2 mph14.8 kmh 29.68 in1005.1 mb 0.00 in0.0 mm 0.00 in0.0 mm 0.12 in3.0 mm
08:25 PM 38.1°F3.4°C 34.0°F1.1°C 85% 3.4 mph WSW5.5 kmh WSW 8.3 mph13.4 kmh 29.69 in1005.4 mb 0.00 in0.0 mm 0.00 in0.0 mm 0.12 in3.0 mm
08:30 PM 38.0°F3.3°C 33.9°F1.1°C 85% 2.7 mph WSW4.3 kmh WSW 5.4 mph8.7 kmh 29.69 in1005.4 mb 0.00 in0.0 mm 0.00 in0.0 mm 0.12 in3.0 mm
08:35 PM 37.7°F3.2°C 33.6°F0.9°C 85% 3.5 mph WSW5.6 kmh WSW 6.9 mph11.1 kmh 29.69 in1005.4 mb 0.00 in0.0 mm 0.00 in0.0 mm 0.12 in3.0 mm
08:40 PM 37.5°F3.1°C 33.4°F0.8°C 85% 3.9 mph SW6.3 kmh SW 6.0 mph9.7 kmh 29.69 in1005.4 mb 0.00 in0.0 mm 0.00 in0.0 mm 0.12 in3.0 mm
08:45 PM 37.4°F3.0°C 33.2°F0.7°C 85% 3.5 mph WSW5.6 kmh WSW 6.0 mph9.7 kmh 29.69 in1005.4 mb 0.00 in0.0 mm 0.00 in0.0 mm 0.12 in3.0 mm
08:50 PM 37.2°F2.9°C 32.2°F0.1°C 82% 2.3 mph WSW3.7 kmh WSW 5.4 mph8.7 kmh 29.69 in1005.4 mb 0.00 in0.0 mm 0.00 in0.0 mm 0.12 in3.0 mm
08:55 PM 37.1°F2.8°C 32.1°F0.1°C 82% 2.8 mph WSW4.5 kmh WSW 4.5 mph7.2 kmh 29.70 in1005.8 mb 0.00 in0.0 mm 0.00 in0.0 mm 0.12 in3.0 mm
09:00 PM 36.9°F2.7°C 31.9°F-0.1°C 82% 2.8 mph W4.5 kmh W 6.0 mph9.7 kmh 29.70 in1005.8 mb 0.00 in0.0 mm 0.00 in0.0 mm 0.12 in3.0 mm
09:05 PM 36.8°F2.7°C 31.8°F-0.1°C 82% 2.5 mph SW4.0 kmh SW 5.4 mph8.7 kmh 29.70 in1005.8 mb 0.00 in0.0 mm 0.00 in0.0 mm 0.12 in3.0 mm
09:10 PM 36.7°F2.6°C 31.7°F-0.2°C 82% 2.8 mph SW4.5 kmh SW 5.4 mph8.7 kmh 29.69 in1005.4 mb 0.00 in0.0 mm 0.00 in0.0 mm 0.12 in3.0 mm
09:15 PM 36.5°F2.5°C 31.5°F-0.3°C 82% 2.0 mph SW3.2 kmh SW 5.4 mph8.7 kmh 29.70 in1005.8 mb 0.00 in0.0 mm 0.00 in0.0 mm 0.12 in3.0 mm
09:20 PM 36.4°F2.4°C 31.6°F-0.2°C 82% 4.3 mph S6.9 kmh S 7.6 mph12.2 kmh 29.70 in1005.8 mb 0.00 in0.0 mm 0.00 in0.0 mm 0.12 in3.0 mm
09:25 PM 36.7°F2.6°C 32.0°F0.0°C 83% 3.8 mph SSE6.1 kmh SSE 6.9 mph11.1 kmh 29.70 in1005.8 mb 0.00 in0.0 mm 0.00 in0.0 mm 0.12 in3.0 mm
09:30 PM 36.7°F2.6°C 32.0°F0.0°C 83% 1.2 mph E1.9 kmh E 4.5 mph7.2 kmh 29.71 in1006.1 mb 0.00 in0.0 mm 0.00 in0.0 mm 0.12 in3.0 mm
09:35 PM 36.6°F2.6°C 31.9°F-0.1°C 83% 2.6 mph S4.2 kmh S 6.0 mph9.7 kmh 29.71 in1006.1 mb 0.00 in0.0 mm 0.00 in0.0 mm 0.12 in3.0 mm
09:40 PM 36.5°F2.5°C 31.8°F-0.1°C 83% 2.9 mph SSE4.7 kmh SSE 6.0 mph9.7 kmh 29.71 in1006.1 mb 0.00 in0.0 mm 0.00 in0.0 mm 0.12 in3.0 mm
09:45 PM 36.5°F2.5°C 31.8°F-0.1°C 83% 3.1 mph S5.0 kmh S 6.9 mph11.1 kmh 29.71 in1006.1 mb 0.00 in0.0 mm 0.00 in0.0 mm 0.12 in3.0 mm
09:50 PM 36.5°F2.5°C 31.8°F-0.1°C 83% 3.1 mph ESE5.0 kmh ESE 7.6 mph12.2 kmh 29.71 in1006.1 mb 0.00 in0.0 mm 0.00 in0.0 mm 0.12 in3.0 mm
09:55 PM 36.7°F2.6°C 32.0°F0.0°C 83% 4.5 mph S7.2 kmh S 7.6 mph12.2 kmh 29.72 in1006.4 mb 0.00 in0.0 mm 0.00 in0.0 mm 0.12 in3.0 mm
10:00 PM 36.8°F2.7°C 32.1°F0.1°C 83% 3.5 mph SW5.6 kmh SW 9.2 mph14.8 kmh 29.73 in1006.8 mb 0.00 in0.0 mm 0.00 in0.0 mm 0.12 in3.0 mm
10:05 PM 37.0°F2.8°C 32.4°F0.2°C 83% 1.6 mph NW2.6 kmh NW 3.1 mph5.0 kmh 29.73 in1006.8 mb 0.00 in0.0 mm 0.00 in0.0 mm 0.12 in3.0 mm
10:10 PM 37.0°F2.8°C 32.1°F0.1°C 82% 1.8 mph NW2.9 kmh NW 3.8 mph6.1 kmh 29.73 in1006.8 mb 0.00 in0.0 mm 0.00 in0.0 mm 0.12 in3.0 mm
10:15 PM 36.7°F2.6°C 31.7°F-0.2°C 82% 1.5 mph SW2.4 kmh SW 3.8 mph6.1 kmh 29.73 in1006.8 mb 0.00 in0.0 mm 0.00 in0.0 mm 0.12 in3.0 mm
10:20 PM 36.4°F2.4°C 31.4°F-0.3°C 82% 2.3 mph ENE3.7 kmh ENE 6.9 mph11.1 kmh 29.73 in1006.8 mb 0.00 in0.0 mm 0.00 in0.0 mm 0.12 in3.0 mm
10:25 PM 36.3°F2.4°C 31.4°F-0.3°C 82% 2.1 mph E3.4 kmh E 5.4 mph8.7 kmh 29.73 in1006.8 mb 0.00 in0.0 mm 0.00 in0.0 mm 0.12 in3.0 mm
10:30 PM 36.5°F2.5°C 31.8°F-0.1°C 83% 3.2 mph S5.1 kmh S 7.6 mph12.2 kmh 29.72 in1006.4 mb 0.00 in0.0 mm 0.00 in0.0 mm 0.12 in3.0 mm
10:35 PM 36.8°F2.7°C 32.1°F0.1°C 83% 2.4 mph ESE3.9 kmh ESE 6.9 mph11.1 kmh 29.72 in1006.4 mb 0.00 in0.0 mm 0.00 in0.0 mm 0.12 in3.0 mm
10:40 PM 36.9°F2.7°C 32.3°F0.2°C 83% 2.8 mph E4.5 kmh E 6.0 mph9.7 kmh 29.72 in1006.4 mb 0.00 in0.0 mm 0.00 in0.0 mm 0.12 in3.0 mm
10:45 PM 37.1°F2.8°C 32.5°F0.3°C 83% 2.8 mph SE4.5 kmh SE 6.9 mph11.1 kmh 29.71 in1006.1 mb 0.00 in0.0 mm 0.00 in0.0 mm 0.12 in3.0 mm
10:50 PM 37.2°F2.9°C 32.5°F0.3°C 83% 3.4 mph SSE5.5 kmh SSE 6.9 mph11.1 kmh 29.72 in1006.4 mb 0.00 in0.0 mm 0.00 in0.0 mm 0.12 in3.0 mm
10:55 PM 37.0°F2.8°C 32.3°F0.2°C 83% 4.2 mph S6.8 kmh S 8.3 mph13.4 kmh 29.72 in1006.4 mb 0.00 in0.0 mm 0.00 in0.0 mm 0.12 in3.0 mm
11:00 PM 36.7°F2.6°C 32.0°F0.0°C 83% 4.4 mph S7.1 kmh S 9.2 mph14.8 kmh 29.73 in1006.8 mb 0.00 in0.0 mm 0.00 in0.0 mm 0.12 in3.0 mm
11:05 PM 36.4°F2.4°C 31.7°F-0.2°C 83% 5.1 mph SW8.2 kmh SW 9.2 mph14.8 kmh 29.72 in1006.4 mb 0.00 in0.0 mm 0.00 in0.0 mm 0.12 in3.0 mm
11:10 PM 36.2°F2.3°C 31.5°F-0.3°C 83% 6.4 mph SSW10.3 kmh SSW 11.4 mph18.3 kmh 29.72 in1006.4 mb 0.00 in0.0 mm 0.00 in0.0 mm 0.12 in3.0 mm
11:15 PM 36.5°F2.5°C 31.8°F-0.1°C 83% 7.4 mph SW11.9 kmh SW 15.2 mph24.5 kmh 29.72 in1006.4 mb 0.00 in0.0 mm 0.00 in0.0 mm 0.12 in3.0 mm
11:20 PM 37.0°F2.8°C 32.3°F0.2°C 83% 8.2 mph WSW13.2 kmh WSW 13.0 mph20.9 kmh 29.72 in1006.4 mb 0.00 in0.0 mm 0.00 in0.0 mm 0.12 in3.0 mm
11:25 PM 37.5°F3.1°C 33.7°F0.9°C 86% 10.7 mph SW17.2 kmh SW 16.8 mph27.0 kmh 29.72 in1006.4 mb 0.00 in0.0 mm 0.00 in0.0 mm 0.12 in3.0 mm
11:30 PM 38.0°F3.3°C 33.8°F1.0°C 85% 8.5 mph SW13.7 kmh SW 16.8 mph27.0 kmh 29.73 in1006.8 mb 0.00 in0.0 mm 0.00 in0.0 mm 0.12 in3.0 mm
11:35 PM 38.2°F3.4°C 33.6°F0.9°C 83% 8.2 mph SW13.2 kmh SW 15.9 mph25.6 kmh 29.72 in1006.4 mb 0.00 in0.0 mm 0.00 in0.0 mm 0.12 in3.0 mm
11:40 PM 38.6°F3.7°C 33.4°F0.8°C 82% 8.1 mph WSW13.0 kmh WSW 14.5 mph23.3 kmh 29.72 in1006.4 mb 0.00 in0.0 mm 0.00 in0.0 mm 0.12 in3.0 mm
11:45 PM 38.7°F3.7°C 33.2°F0.7°C 81% 5.9 mph WSW9.5 kmh WSW 13.0 mph20.9 kmh 29.73 in1006.8 mb 0.00 in0.0 mm 0.00 in0.0 mm 0.12 in3.0 mm
11:50 PM 38.6°F3.7°C 33.0°F0.6°C 80% 3.5 mph SW5.6 kmh SW 6.9 mph11.1 kmh 29.73 in1006.8 mb 0.00 in0.0 mm 0.00 in0.0 mm 0.12 in3.0 mm
11:55 PM 38.4°F3.6°C 32.8°F0.4°C 80% 3.1 mph WSW5.0 kmh WSW 5.4 mph8.7 kmh 29.73 in1006.8 mb 0.00 in0.0 mm 0.00 in0.0 mm 0.12 in3.0 mm